Time;durP1;ratioP1;P1;durP2;ratioP2;P2;SDS_P1;SDS_P2;PMS_P1;PMS_P2;Temp;Humidity;BMP_temperature;BMP_pressure;BME280_temperature;BME280_humidity;BME280_pressure;Samples;Min_cycle;Max_cycle;Signal;HPM_P1;HPM_P2
2022/10/04 00:01:59;;;;;;;6.72;6.15;;;;;;;8.15;100.00;99353.78;4109017;28;20236;-84
2022/10/04 00:05:05;;;;;;;5.95;5.32;;;;;;;8.08;100.00;99352.94;4124650;28;20273;-84
2022/10/04 00:07:19;;;;;;;8.18;5.95;;;;;;;8.02;100.00;99359.25;4099174;28;20210;-84
2022/10/04 00:09:46;;;;;;;6.20;5.70;;;;;;;7.94;100.00;99345.81;4125353;28;20252;-85
2022/10/04 00:11:56;;;;;;;6.57;6.03;;;;;;;7.88;100.00;99352.16;4139154;28;20221;-87
2022/10/04 00:14:07;;;;;;;6.57;6.10;;;;;;;7.79;100.00;99345.22;4115131;28;20223;-86
2022/10/04 00:16:19;;;;;;;7.28;6.78;;;;;;;7.83;100.00;99344.59;4148579;28;20232;-87
2022/10/04 00:18:37;;;;;;;7.65;5.70;;;;;;;7.89;100.00;99348.38;4134218;28;20226;-87
2022/10/04 00:20:49;;;;;;;6.68;5.93;;;;;;;7.97;100.00;99348.16;4146288;28;20274;-86
2022/10/04 00:23:24;;;;;;;12.55;6.65;;;;;;;7.75;100.00;99352.19;4145762;28;20266;-87
2022/10/04 00:25:35;;;;;;;7.70;7.00;;;;;;;7.74;100.00;99351.31;4126661;28;20224;-85
2022/10/04 00:27:37;;;;;;;7.70;6.95;;;;;;;7.74;100.00;99353.19;4120920;28;20218;-85
2022/10/04 00:29:45;;;;;;;7.45;6.72;;;;;;;7.71;100.00;99350.91;4124867;28;20677;-85
2022/10/04 00:32:26;;;;;;;6.03;5.63;;;;;;;7.64;100.00;99347.34;4121455;28;22442;-87
2022/10/04 00:34:27;;;;;;;6.82;6.32;;;;;;;7.58;100.00;99345.47;4116194;28;20226;-85
2022/10/04 00:36:50;;;;;;;5.45;4.97;;;;;;;7.57;100.00;99338.34;4135355;28;20205;-85
2022/10/04 00:39:04;;;;;;;5.35;4.95;;;;;;;7.55;100.00;99335.03;4122042;28;20281;-85
2022/10/04 00:41:11;;;;;;;5.85;5.45;;;;;;;7.57;100.00;99332.91;4120135;28;20246;-85
2022/10/04 00:43:16;;;;;;;9.45;5.70;;;;;;;7.56;100.00;99331.25;4117183;28;20245;-86
2022/10/04 00:45:26;;;;;;;5.68;5.28;;;;;;;7.56;100.00;99332.06;4100602;28;20237;-85
2022/10/04 00:47:36;;;;;;;6.53;6.03;;;;;;;7.48;100.00;99335.00;4119102;28;20228;-85
2022/10/04 00:49:44;;;;;;;5.18;4.82;;;;;;;7.52;100.00;99329.97;4119961;28;20197;-85
2022/10/04 00:51:53;;;;;;;6.57;5.97;;;;;;;7.53;100.00;99331.66;4103401;28;20318;-84
2022/10/04 00:54:13;;;;;;;5.22;4.82;;;;;;;7.53;100.00;99320.75;4126401;28;20730;-86
2022/10/04 00:56:35;;;;;;;5.90;5.50;;;;;;;7.50;100.00;99315.75;4125907;28;20256;-84
2022/10/04 00:58:48;;;;;;;7.95;5.65;;;;;;;7.49;100.00;99319.53;4110600;28;20249;-84
2022/10/04 01:00:51;;;;;;;6.95;5.88;;;;;;;7.54;100.00;99323.28;4130366;28;20202;-85
2022/10/04 01:03:02;;;;;;;7.43;6.28;;;;;;;7.60;100.00;99327.03;4121397;28;20245;-86
2022/10/04 01:05:10;;;;;;;6.38;5.97;;;;;;;7.62;100.00;99319.50;4138952;28;20235;-84
2022/10/04 01:07:16;;;;;;;8.75;5.43;;;;;;;7.55;100.00;99324.13;4118496;28;20209;-84
2022/10/04 01:09:18;;;;;;;6.45;5.85;;;;;;;7.48;100.00;99312.41;4116064;28;20210;-84
2022/10/04 01:11:27;;;;;;;5.57;5.18;;;;;;;7.45;100.00;99316.38;4115451;28;20220;-84
2022/10/04 01:13:45;;;;;;;5.57;5.18;;;;;;;7.42;100.00;99313.25;4103819;28;20248;-84
2022/10/04 01:15:58;;;;;;;5.85;5.45;;;;;;;7.35;100.00;99313.22;4102775;28;20329;-85
2022/10/04 01:18:16;;;;;;;6.18;5.68;;;;;;;7.31;100.00;99316.59;4118774;28;20659;-86
2022/10/04 01:20:47;;;;;;;5.90;5.43;;;;;;;7.25;100.00;99318.28;4101934;28;20203;-84
2022/10/04 01:22:49;;;;;;;5.70;5.30;;;;;;;7.37;100.00;99318.47;4083535;28;20266;-86
2022/10/04 01:24:53;;;;;;;6.00;5.40;;;;;;;7.30;100.00;99315.75;4098393;28;20230;-85
2022/10/04 01:26:59;;;;;;;6.13;5.63;;;;;;;7.38;100.00;99311.97;4115399;28;20209;-85
2022/10/04 01:29:06;;;;;;;6.28;5.78;;;;;;;7.29;100.00;99324.13;4101276;28;20207;-84
2022/10/04 01:31:10;;;;;;;6.60;6.13;;;;;;;7.25;100.00;99325.59;4116442;28;20609;-84
2022/10/04 01:33:16;;;;;;;11.57;6.60;;;;;;;7.24;100.00;99322.03;4117211;28;20198;-84
2022/10/04 01:35:21;;;;;;;5.80;5.35;;;;;;;7.18;100.00;99306.56;4102048;28;20210;-83
2022/10/04 01:37:22;;;;;;;5.72;5.20;;;;;;;7.11;100.00;99310.31;4123552;28;20217;-87
2022/10/04 01:39:25;;;;;;;6.90;6.45;;;;;;;7.08;100.00;99306.09;4101177;28;20210;-85
2022/10/04 01:41:35;;;;;;;5.75;5.32;;;;;;;7.10;100.00;99303.19;4114597;28;20585;-85
2022/10/04 01:43:41;;;;;;;5.97;5.55;;;;;;;7.13;100.00;99291.88;4115393;28;20288;-85
2022/10/04 01:45:53;;;;;;;5.35;4.95;;;;;;;7.20;100.00;99292.72;4118590;28;20217;-84
2022/10/04 01:48:04;;;;;;;6.40;5.90;;;;;;;7.17;100.00;99279.53;4102196;28;20212;-85
2022/10/04 01:50:13;;;;;;;6.72;5.50;;;;;;;7.20;100.00;99277.22;4099961;28;20257;-84
2022/10/04 01:52:27;;;;;;;7.68;5.32;;;;;;;7.06;100.00;99263.81;4104548;28;20246;-84
2022/10/04 01:54:44;;;;;;;6.35;5.95;;;;;;;7.03;100.00;99269.69;4120519;28;20244;-86
2022/10/04 01:56:54;;;;;;;6.25;5.72;;;;;;;6.99;100.00;99266.56;4103338;28;20243;-85
2022/10/04 01:58:59;;;;;;;6.38;5.70;;;;;;;6.96;100.00;99268.88;4135689;28;20682;-85
2022/10/04 02:01:06;;;;;;;6.43;5.93;;;;;;;6.95;100.00;99280.78;4105643;28;20684;-86
2022/10/04 02:03:14;;;;;;;6.55;5.30;;;;;;;6.95;100.00;99272.63;4104164;28;20603;-85
2022/10/04 02:05:28;;;;;;;7.20;5.43;;;;;;;6.96;100.00;99274.31;4097945;28;20746;-85
2022/10/04 02:07:31;;;;;;;6.57;5.40;;;;;;;6.94;100.00;99265.50;4112058;28;21600;-85
2022/10/04 02:09:37;;;;;;;5.47;5.07;;;;;;;6.89;100.00;99262.59;4131952;28;20220;-86
2022/10/04 02:11:52;;;;;;;6.65;6.05;;;;;;;6.98;100.00;99272.19;4116447;28;20240;-86
2022/10/04 02:13:54;;;;;;;5.35;4.95;;;;;;;6.97;100.00;99265.09;4110541;28;20253;-85
2022/10/04 02:15:57;;;;;;;6.70;6.07;;;;;;;7.00;100.00;99264.66;4100648;28;20359;-86
2022/10/04 02:17:58;;;;;;;6.10;5.70;;;;;;;6.90;100.00;99269.69;4128803;28;20209;-85
2022/10/04 02:20:02;;;;;;;7.32;5.55;;;;;;;6.87;100.00;99270.94;4119092;28;20237;-85
2022/10/04 02:22:08;;;;;;;6.97;6.25;;;;;;;6.93;100.00;99269.25;4103436;28;20202;-86
2022/10/04 02:24:12;;;;;;;5.80;5.35;;;;;;;6.84;100.00;99270.53;4115412;28;20227;-85
2022/10/04 02:26:14;;;;;;;7.65;5.57;;;;;;;6.81;100.00;99270.91;4101132;28;20235;-87
2022/10/04 02:28:17;;;;;;;5.38;4.97;;;;;;;6.82;100.00;99269.91;4121614;28;20788;-86
2022/10/04 02:30:26;;;;;;;5.25;4.85;;;;;;;6.90;100.00;99267.78;4106748;28;20265;-83
2022/10/04 02:34:50;;;;;;;5.15;4.80;;;;;;;6.87;100.00;99259.22;4117949;28;22254;-85
2022/10/04 02:36:53;;;;;;;5.32;5.03;;;;;;;6.80;100.00;99247.50;4119864;28;20218;-85
2022/10/04 02:39:24;;;;;;;13.60;5.53;;;;;;;6.80;100.00;99247.50;4109264;28;20747;-85
2022/10/04 02:41:50;;;;;;;4.30;4.00;;;;;;;6.69;100.00;99240.78;4118088;28;20244;-84
2022/10/04 02:44:10;;;;;;;4.90;4.60;;;;;;;6.73;100.00;99247.50;4137240;28;20225;-86
2022/10/04 02:46:28;;;;;;;5.38;4.88;;;;;;;6.68;100.00;99249.19;4125406;28;20206;-84
2022/10/04 02:48:52;;;;;;;5.43;5.03;;;;;;;6.64;100.00;99247.91;4130116;28;20195;-86
2022/10/04 02:50:58;;;;;;;5.93;5.43;;;;;;;6.64;100.00;99247.91;4104048;28;20199;-84
2022/10/04 02:53:21;;;;;;;6.18;5.63;;;;;;;6.55;100.00;99249.16;4118675;28;20303;-84
2022/10/04 02:55:29;;;;;;;8.75;5.22;;;;;;;6.50;100.00;99240.78;4102106;28;20215;-86
2022/10/04 02:57:32;;;;;;;6.40;5.78;;;;;;;6.45;100.00;99244.13;4112174;28;20203;-85
2022/10/04 02:59:43;;;;;;;5.72;5.22;;;;;;;6.46;100.00;99240.34;4121280;28;20234;-85
2022/10/04 03:01:52;;;;;;;4.90;4.60;;;;;;;6.51;100.00;99237.00;4124410;28;20210;-85
2022/10/04 03:03:54;;;;;;;4.85;4.53;;;;;;;6.50;100.00;99232.63;4108911;28;20702;-84
2022/10/04 03:06:31;;;;;;;6.35;5.50;;;;;;;6.45;100.00;99229.69;4135110;28;20205;-85
2022/10/04 03:08:36;;;;;;;4.25;3.90;;;;;;;6.46;100.00;99223.19;4089166;28;20211;-85
2022/10/04 03:10:43;;;;;;;4.38;4.07;;;;;;;6.45;100.00;99221.53;4102654;28;20211;-85
2022/10/04 03:12:49;;;;;;;6.97;5.10;;;;;;;6.41;100.00;99222.97;4105555;28;20234;-84
2022/10/04 03:14:56;;;;;;;6.00;5.53;;;;;;;6.39;100.00;99214.19;4118256;28;20425;-86
2022/10/04 03:17:02;;;;;;;6.00;4.85;;;;;;;6.35;100.00;99212.94;4121315;28;20209;-84
2022/10/04 03:19:05;;;;;;;6.78;6.30;;;;;;;6.38;100.00;99217.97;4115918;28;20222;-85
2022/10/04 03:21:18;;;;;;;4.32;4.03;;;;;;;6.35;100.00;99215.66;4119632;28;20609;-85
2022/10/04 03:23:23;;;;;;;4.68;4.35;;;;;;;6.34;100.00;99228.41;4119166;28;20237;-85
2022/10/04 03:25:34;;;;;;;5.38;4.88;;;;;;;6.44;100.00;99228.00;4103324;28;20241;-88
2022/10/04 03:27:35;;;;;;;5.82;5.43;;;;;;;6.49;100.00;99228.22;4115701;28;20236;-86
2022/10/04 03:29:42;;;;;;;7.57;6.47;;;;;;;6.41;100.00;99221.09;4103013;28;20298;-87
2022/10/04 03:32:04;;;;;;;7.53;5.80;;;;;;;6.40;100.00;99218.56;4120734;28;20198;-86
2022/10/04 03:34:20;;;;;;;6.97;6.18;;;;;;;6.35;100.00;99227.34;4120294;28;20219;-87
2022/10/04 03:36:38;;;;;;;5.43;4.93;;;;;;;6.31;100.00;99225.25;4118431;28;20741;-86
2022/10/04 03:38:40;;;;;;;4.68;4.22;;;;;;;6.31;100.00;99227.97;4124766;28;20237;-85
2022/10/04 03:40:50;;;;;;;5.20;4.70;;;;;;;6.21;100.00;99224.81;4118369;28;20276;-86
2022/10/04 03:42:55;;;;;;;5.90;5.40;;;;;;;6.15;100.00;99222.94;4108257;28;20202;-85
2022/10/04 03:45:00;;;;;;;4.30;3.92;;;;;;;6.13;100.00;99220.41;4119491;28;20741;-86
2022/10/04 03:47:08;;;;;;;4.70;4.40;;;;;;;6.15;100.00;99214.78;4119728;28;21208;-86
2022/10/04 03:49:14;;;;;;;4.10;3.80;;;;;;;6.09;100.00;99215.59;4106568;28;20202;-86
2022/10/04 03:51:18;;;;;;;4.93;4.53;;;;;;;6.05;100.00;99226.03;4121427;28;20285;-86
2022/10/04 03:53:30;;;;;;;3.60;2.88;;;;;;;6.12;100.00;99223.31;4118498;28;20618;-86
2022/10/04 03:55:35;;;;;;;4.25;3.92;;;;;;;6.11;100.00;99229.81;4136851;28;20659;-85
2022/10/04 03:57:36;;;;;;;3.72;3.42;;;;;;;6.09;100.00;99227.28;4133740;28;20202;-86
2022/10/04 03:59:38;;;;;;;4.05;3.75;;;;;;;6.07;100.00;99232.09;4118855;28;20645;-85
2022/10/04 04:01:59;;;;;;;4.13;3.83;;;;;;;6.05;100.00;99236.91;4119316;28;20205;-87
2022/10/04 04:04:17;;;;;;;4.88;4.45;;;;;;;6.00;100.00;99233.94;4131089;28;20226;-85
2022/10/04 04:06:20;;;;;;;4.53;4.13;;;;;;;6.02;100.00;99239.19;4117885;28;20305;-86
2022/10/04 04:08:36;;;;;;;3.67;3.47;;;;;;;6.00;100.00;99243.97;4100013;28;20215;-85
2022/10/04 04:10:41;;;;;;;3.38;3.13;;;;;;;5.97;100.00;99245.22;4121523;28;20222;-85
2022/10/04 04:12:48;;;;;;;8.70;4.07;;;;;;;6.04;100.00;99247.97;4135018;28;20677;-85
2022/10/04 04:14:51;;;;;;;3.58;3.20;;;;;;;6.09;100.00;99237.34;4118978;28;20237;-85
2022/10/04 04:16:54;;;;;;;7.47;3.67;;;;;;;5.95;100.00;99236.44;4106688;28;20203;-84
2022/10/04 04:19:04;;;;;;;4.97;3.63;;;;;;;5.96;100.00;99237.28;4120177;28;20668;-86
2022/10/04 04:21:14;;;;;;;3.65;3.35;;;;;;;5.88;100.00;99234.75;4116959;28;20253;-85
2022/10/04 04:23:51;;;;;;;3.30;3.08;;;;;;;5.91;100.00;99245.19;4100896;28;20934;-85
2022/10/04 04:26:41;;;;;;;3.03;2.83;;;;;;;5.92;100.00;99241.44;4134362;28;20198;-85
2022/10/04 04:29:26;;;;;;;3.92;2.58;;;;;;;5.93;100.00;99243.09;4105522;28;20300;-84
2022/10/04 04:31:33;;;;;;;3.08;2.88;;;;;;;5.96;100.00;99245.44;4113081;28;20225;-84
2022/10/04 04:33:42;;;;;;;3.45;2.67;;;;;;;6.04;100.00;99251.50;4121522;28;20753;-85
2022/10/04 04:35:44;;;;;;;2.67;2.47;;;;;;;5.94;100.00;99250.22;4136905;28;20208;-84
2022/10/04 04:38:05;;;;;;;3.97;3.70;;;;;;;5.90;100.00;99238.09;4126547;28;20297;-86
2022/10/04 04:40:15;;;;;;;3.80;3.13;;;;;;;5.89;100.00;99258.97;4121477;28;20659;-85
2022/10/04 04:42:28;;;;;;;3.25;3.05;;;;;;;5.85;100.00;99254.16;4121039;28;20210;-85
2022/10/04 04:44:29;;;;;;;4.40;4.00;;;;;;;5.87;100.00;99257.50;4121570;28;20222;-86
2022/10/04 04:46:33;;;;;;;4.80;4.50;;;;;;;5.90;100.00;99247.06;4120181;28;20218;-86
2022/10/04 04:48:43;;;;;;;4.13;3.78;;;;;;;5.98;100.00;99256.91;4110576;28;20202;-86
2022/10/04 04:50:52;;;;;;;4.65;4.35;;;;;;;6.03;100.00;99251.72;4126933;28;20213;-86
2022/10/04 04:52:58;;;;;;;12.85;4.50;;;;;;;5.93;100.00;99243.97;4123255;28;20214;-87
2022/10/04 04:55:00;;;;;;;7.68;3.83;;;;;;;5.66;100.00;99241.28;4128724;28;20233;-85
2022/10/04 04:57:02;;;;;;;5.82;5.32;;;;;;;5.48;100.00;99239.09;4109853;28;20207;-86
2022/10/04 04:59:06;;;;;;;6.45;5.20;;;;;;;5.43;100.00;99238.03;4112235;28;20206;-86
2022/10/04 05:01:29;;;;;;;5.47;4.97;;;;;;;5.23;100.00;99240.59;4105508;28;20242;-86
2022/10/04 05:03:32;;;;;;;4.22;3.92;;;;;;;5.11;100.00;99235.94;4113570;28;20202;-86
2022/10/04 05:05:35;;;;;;;5.60;5.13;;;;;;;5.24;100.00;99230.59;4134444;28;20206;-86
2022/10/04 05:07:36;;;;;;;7.18;5.32;;;;;;;5.15;100.00;99231.81;4141064;28;20243;-86
2022/10/04 05:09:38;;;;;;;6.78;4.78;;;;;;;5.16;100.00;99222.63;4159189;28;20268;-84
2022/10/04 05:11:40;;;;;;;5.00;4.57;;;;;;;4.95;100.00;99217.25;4138698;28;20212;-86
2022/10/04 05:14:11;;;;;;;5.53;4.35;;;;;;;5.08;100.00;99230.88;4136958;28;20224;-85
2022/10/04 05:16:15;;;;;;;6.60;4.80;;;;;;;5.24;100.00;99226.00;4153093;28;20204;-86
2022/10/04 05:18:27;;;;;;;6.13;5.60;;;;;;;5.38;100.00;99232.34;4155117;28;20209;-86
2022/10/04 05:20:30;;;;;;;7.15;4.30;;;;;;;5.50;100.00;99230.75;4156691;28;20218;-86
2022/10/04 05:22:32;;;;;;;8.23;5.03;;;;;;;5.59;100.00;99227.69;4140609;28;20210;-85
2022/10/04 05:24:36;;;;;;;4.40;4.00;;;;;;;5.62;100.00;99219.13;4161159;28;20220;-86
2022/10/04 05:26:40;;;;;;;5.55;5.03;;;;;;;5.64;100.00;99218.94;4144154;28;20233;-86
2022/10/04 05:28:45;;;;;;;5.45;5.05;;;;;;;5.73;100.00;99225.84;4146982;28;20201;-86
2022/10/04 05:31:15;;;;;;;5.05;4.65;;;;;;;5.76;100.00;99220.03;4161378;28;20211;-86
2022/10/04 05:33:23;;;;;;;4.72;4.13;;;;;;;5.74;100.00;99216.66;4158563;28;20224;-85
2022/10/04 05:35:27;;;;;;;5.80;5.28;;;;;;;5.73;100.00;99225.84;4160742;28;21177;-85
2022/10/04 05:38:00;;;;;;;6.13;4.80;;;;;;;5.73;100.00;99225.84;4159074;28;20219;-85
2022/10/04 05:40:14;;;;;;;4.45;4.05;;;;;;;5.73;100.00;99231.28;4119766;28;20274;-85
2022/10/04 05:42:22;;;;;;;5.05;4.63;;;;;;;5.75;100.00;99231.94;4156296;28;20646;-84
2022/10/04 05:44:30;;;;;;;4.65;4.35;;;;;;;5.78;100.00;99234.25;4159860;28;20504;-85
2022/10/04 05:46:34;;;;;;;10.23;4.78;;;;;;;5.77;100.00;99229.84;4138400;28;20223;-86
2022/10/04 05:48:43;;;;;;;4.97;4.47;;;;;;;5.81;100.00;99228.41;4154845;28;20212;-85
2022/10/04 05:50:45;;;;;;;5.00;4.60;;;;;;;5.78;100.00;99228.81;4143545;28;20213;-85
2022/10/04 05:52:49;;;;;;;4.90;4.40;;;;;;;5.81;100.00;99225.72;4139145;28;20210;-86
2022/10/04 05:55:29;;;;;;;4.80;4.40;;;;;;;5.75;100.00;99212.94;4146414;28;20229;-86
2022/10/04 05:57:34;;;;;;;6.38;4.95;;;;;;;5.77;100.00;99216.28;4171166;28;20208;-86
2022/10/04 05:59:45;;;;;;;4.55;4.18;;;;;;;5.77;100.00;99213.56;4160393;28;21002;-86
2022/10/04 06:02:08;;;;;;;4.97;4.65;;;;;;;5.77;100.00;99221.72;4155856;28;20204;-86
2022/10/04 06:04:19;;;;;;;4.75;4.28;;;;;;;5.89;100.00;99225.56;4169354;28;20224;-85
2022/10/04 06:07:02;;;;;;;4.80;4.45;;;;;;;5.81;100.00;99228.41;4169224;28;20212;-84
2022/10/04 06:09:30;;;;;;;4.07;3.67;;;;;;;5.89;100.00;99228.28;4167117;28;20205;-85
2022/10/04 06:12:00;;;;;;;7.50;2.88;;;;;;;5.86;100.00;99226.78;4169892;28;20255;-86
2022/10/04 06:14:18;;;;;;;3.72;3.42;;;;;;;5.88;100.00;99232.03;4158503;28;20331;-86
2022/10/04 06:16:44;;;;;;;4.95;4.65;;;;;;;5.85;100.00;99229.72;4153461;28;20197;-85
2022/10/04 06:19:11;;;;;;;4.45;4.15;;;;;;;5.88;100.00;99240.19;4154546;28;20216;-86
2022/10/04 06:21:29;;;;;;;6.18;4.43;;;;;;;5.95;100.00;99241.03;4159570;28;20216;-86
2022/10/04 06:23:33;;;;;;;4.88;4.53;;;;;;;5.97;100.00;99249.81;4135171;28;20267;-84
2022/10/04 06:25:39;;;;;;;4.60;4.22;;;;;;;6.06;100.00;99243.16;4155998;28;20240;-86
2022/10/04 06:27:49;;;;;;;4.70;4.32;;;;;;;6.05;100.00;99244.19;4139812;28;20236;-85
2022/10/04 06:29:57;;;;;;;3.50;3.30;;;;;;;6.05;100.00;99238.78;4156904;28;20207;-85
2022/10/04 06:32:10;;;;;;;3.80;3.28;;;;;;;6.09;100.00;99231.91;4171835;28;20206;-86
2022/10/04 06:34:44;;;;;;;2.60;2.40;;;;;;;6.14;100.00;99238.38;4143107;28;20229;-86
2022/10/04 06:37:01;;;;;;;5.35;3.13;;;;;;;6.06;100.00;99240.44;4159107;28;20208;-87
2022/10/04 06:39:21;;;;;;;3.70;3.40;;;;;;;5.99;100.00;99248.56;4155945;28;20217;-84
2022/10/04 06:41:38;;;;;;;8.90;3.53;;;;;;;6.02;100.00;99250.06;4155838;28;20629;-86
2022/10/04 06:43:52;;;;;;;10.27;2.55;;;;;;;6.04;100.00;99240.63;4151435;28;20236;-87
2022/10/04 06:46:02;;;;;;;3.58;3.08;;;;;;;6.07;100.00;99239.41;4170340;28;20340;-86
2022/10/04 06:48:07;;;;;;;12.95;3.55;;;;;;;6.08;100.00;99235.66;4159971;28;20216;-86
2022/10/04 06:50:32;;;;;;;2.95;2.75;;;;;;;6.14;100.00;99241.09;4159510;28;20556;-84
2022/10/04 06:53:29;;;;;;;4.15;3.85;;;;;;;6.04;100.00;99239.81;4157925;28;20212;-86
2022/10/04 06:56:10;;;;;;;10.05;3.80;;;;;;;6.02;100.00;99241.91;4146172;28;20617;-86
2022/10/04 06:58:34;;;;;;;7.28;3.95;;;;;;;6.28;100.00;99248.25;4174035;28;20215;-86
2022/10/04 07:00:56;;;;;;;4.75;4.45;;;;;;;6.41;100.00;99251.00;4157532;28;20205;-86
2022/10/04 07:03:03;;;;;;;4.05;3.50;;;;;;;6.46;100.00;99258.53;4160207;28;20318;-87
2022/10/04 07:05:31;;;;;;;14.82;4.40;;;;;;;6.52;100.00;99265.88;4137582;28;20745;-84
2022/10/04 07:07:36;;;;;;;6.35;2.97;;;;;;;6.61;100.00;99259.19;4139005;28;20290;-85
2022/10/04 07:09:43;;;;;;;3.22;3.03;;;;;;;6.69;100.00;99257.09;4156283;28;20296;-85
2022/10/04 07:12:07;;;;;;;7.85;3.10;;;;;;;6.57;100.00;99249.78;4143286;28;20235;-86
2022/10/04 07:14:16;;;;;;;3.30;2.92;;;;;;;6.46;100.00;99245.78;4166207;28;20259;-86
2022/10/04 07:16:26;;;;;;;3.50;3.20;;;;;;;6.39;100.00;99241.38;4151820;28;20717;-84
2022/10/04 07:18:36;;;;;;;5.80;4.63;;;;;;;6.28;100.00;99242.81;4140398;28;20213;-85
2022/10/04 07:20:38;;;;;;;8.70;5.35;;;;;;;6.51;100.00;99248.72;4139461;28;20213;-86
2022/10/04 07:23:02;;;;;;;7.75;7.00;;;;;;;6.83;100.00;99247.91;4140912;28;20213;-86
2022/10/04 07:25:13;;;;;;;6.25;5.70;;;;;;;6.57;100.00;99257.94;4138909;28;20230;-85
2022/10/04 07:27:46;;;;;;;7.07;6.55;;;;;;;6.85;100.00;99256.72;4154454;28;20275;-87
2022/10/04 07:29:54;;;;;;;6.38;5.85;;;;;;;7.30;100.00;99255.84;4153104;28;20212;-86
2022/10/04 07:32:05;;;;;;;6.70;6.10;;;;;;;7.38;100.00;99262.97;4150849;28;20209;-85
2022/10/04 07:34:15;;;;;;;6.22;5.65;;;;;;;7.70;100.00;99256.63;4155259;28;20232;-86
2022/10/04 07:36:24;;;;;;;5.05;4.50;;;;;;;7.77;100.00;99271.06;4154797;28;20203;-85
2022/10/04 07:38:28;;;;;;;6.00;5.32;;;;;;;8.55;100.00;99262.59;4145459;28;20681;-86
2022/10/04 07:40:36;;;;;;;4.47;4.07;;;;;;;8.71;100.00;99272.97;4155862;28;20209;-86
2022/10/04 07:42:43;;;;;;;5.95;5.47;;;;;;;8.56;100.00;99265.06;4144296;28;20218;-86
2022/10/04 07:44:56;;;;;;;4.63;4.30;;;;;;;9.14;100.00;99268.47;4153528;28;20235;-87
2022/10/04 07:47:04;;;;;;;5.60;5.20;;;;;;;8.82;100.00;99264.91;4157107;28;20209;-86
2022/10/04 07:49:12;;;;;;;4.55;4.15;;;;;;;8.66;100.00;99264.59;4159783;28;20215;-86
2022/10/04 07:51:23;;;;;;;4.75;4.45;;;;;;;8.65;100.00;99268.38;4166484;28;20209;-87
2022/10/04 07:53:36;;;;;;;4.00;3.70;;;;;;;8.72;100.00;99280.94;4160852;28;20212;-87
2022/10/04 07:55:53;;;;;;;4.88;4.47;;;;;;;8.57;100.00;99265.94;4141326;28;20285;-86
2022/10/04 07:58:11;;;;;;;4.57;4.28;;;;;;;8.49;100.00;99268.91;4154832;28;20212;-87
2022/10/04 08:00:50;;;;;;;5.80;5.40;;;;;;;8.60;100.00;99265.47;4144260;28;20237;-86
2022/10/04 08:03:35;;;;;;;9.15;6.07;;;;;;;8.63;100.00;99265.06;4164251;28;20652;-87
2022/10/04 08:06:10;;;;;;;5.18;4.75;;;;;;;8.78;100.00;99260.97;4162016;28;20218;-86
2022/10/04 08:08:21;;;;;;;5.60;4.75;;;;;;;8.95;100.00;99269.44;4149993;28;20204;-86
2022/10/04 08:10:36;;;;;;;5.57;5.07;;;;;;;9.10;100.00;99250.84;4163976;28;20205;-86
2022/10/04 08:12:47;;;;;;;6.65;6.05;;;;;;;9.14;100.00;99252.09;4140908;28;20234;-86
2022/10/04 08:15:18;;;;;;;4.90;4.45;;;;;;;9.27;100.00;99262.88;4142588;28;20236;-86
2022/10/04 08:17:44;;;;;;;5.60;5.13;;;;;;;9.41;100.00;99261.72;4140751;28;20208;-86
2022/10/04 08:20:18;;;;;;;6.47;5.95;;;;;;;9.35;100.00;99257.16;4154745;28;20197;-86
2022/10/04 08:22:33;;;;;;;5.35;4.88;;;;;;;9.23;100.00;99250.72;4148768;28;20322;-84
2022/10/04 08:24:40;;;;;;;20.50;4.90;;;;;;;9.25;100.00;99254.91;4132804;28;20225;-86
2022/10/04 08:27:10;;;;;;;7.22;5.00;;;;;;;9.39;100.00;99250.16;4136053;28;20241;-84
2022/10/04 08:31:57;;;;;;;4.65;4.22;;;;;;;9.63;100.00;99241.09;4153248;28;20200;-88
2022/10/04 08:34:21;;;;;;;4.13;3.83;;;;;;;9.86;100.00;99246.72;4149361;28;20251;-84
2022/10/04 08:36:44;;;;;;;6.03;5.05;;;;;;;10.07;100.00;99249.03;4128309;28;20248;-86
2022/10/04 08:38:49;;;;;;;6.15;4.82;;;;;;;10.14;100.00;99244.34;4136560;28;20205;-86
2022/10/04 08:41:06;;;;;;;5.20;4.90;;;;;;;10.29;100.00;99247.50;4152962;28;20224;-85
2022/10/04 08:43:24;;;;;;;6.93;5.07;;;;;;;10.27;100.00;99250.44;4146688;28;20264;-85
2022/10/04 08:45:54;;;;;;;6.25;5.80;;;;;;;11.10;100.00;99253.00;4135061;28;20222;-85
2022/10/04 08:48:23;;;;;;;7.32;4.85;;;;;;;11.54;100.00;99255.22;4134415;28;20217;-85
2022/10/04 08:51:05;;;;;;;6.82;6.15;;;;;;;12.38;98.91;99258.19;4150599;28;20202;-85
2022/10/04 08:53:16;;;;;;;6.15;5.65;;;;;;;12.54;94.38;99257.44;4149804;28;20216;-85
2022/10/04 08:55:57;;;;;;;6.80;6.18;;;;;;;12.47;92.40;99256.75;4149916;28;20238;-85
2022/10/04 08:58:23;;;;;;;6.68;6.07;;;;;;;11.49;96.42;99246.84;4148030;28;20208;-86
2022/10/04 09:00:54;;;;;;;6.45;5.82;;;;;;;11.99;94.71;99248.06;4147087;28;20204;-86
2022/10/04 09:03:10;;;;;;;7.15;6.55;;;;;;;12.01;94.63;99242.31;4147132;28;20664;-84
2022/10/04 09:05:26;;;;;;;34.15;25.80;;;;;;;12.22;94.75;99242.50;4147441;28;20220;-85
2022/10/04 09:07:46;;;;;;;14.82;12.27;;;;;;;12.28;93.74;99247.03;4149357;28;20213;-85
2022/10/04 09:10:15;;;;;;;10.13;8.95;;;;;;;12.71;92.61;99236.34;4131358;28;20209;-85
2022/10/04 09:12:43;;;;;;;9.40;8.50;;;;;;;13.13;90.32;99240.47;4150144;28;20209;-86
2022/10/04 09:15:17;;;;;;;8.32;6.78;;;;;;;13.28;90.40;99232.47;4133301;28;20236;-84
2022/10/04 09:17:22;;;;;;;9.38;5.82;;;;;;;13.42;90.11;99238.44;4135755;28;20229;-84
2022/10/04 09:19:54;;;;;;;6.28;5.68;;;;;;;13.42;89.26;99242.03;4157518;28;20240;-83
2022/10/04 09:21:55;;;;;;;6.65;5.80;;;;;;;13.18;90.68;99246.00;4157765;28;20209;-84
2022/10/04 09:24:36;;;;;;;6.68;6.07;;;;;;;13.83;90.50;99244.31;4148931;28;20231;-84
2022/10/04 09:26:45;;;;;;;5.65;5.18;;;;;;;14.19;88.99;99245.69;4150082;28;20212;-85
2022/10/04 09:29:10;;;;;;;9.23;5.03;;;;;;;15.11;88.39;99245.34;4139231;28;20285;-84
2022/10/04 09:31:33;;;;;;;6.00;5.40;;;;;;;15.23;86.16;99237.75;4137852;28;20679;-82
2022/10/04 09:33:59;;;;;;;5.80;5.40;;;;;;;15.51;84.74;99239.41;4140821;28;20206;-84
2022/10/04 09:36:39;;;;;;;5.47;4.78;;;;;;;15.50;85.32;99238.56;4143536;28;20276;-84
2022/10/04 09:38:57;;;;;;;6.28;5.60;;;;;;;15.57;85.96;99230.88;4133159;28;20210;-84
2022/10/04 09:41:28;;;;;;;5.68;5.18;;;;;;;16.03;84.38;99238.38;4136742;28;20955;-85
2022/10/04 09:44:07;;;;;;;5.28;4.78;;;;;;;16.66;83.01;99240.06;4136226;28;20269;-84
2022/10/04 09:46:36;;;;;;;7.18;4.25;;;;;;;17.25;79.85;99231.09;4128474;28;20671;-85
2022/10/04 09:48:43;;;;;;;5.75;4.72;;;;;;;17.08;78.96;99232.44;4129273;28;20206;-85
2022/10/04 09:51:15;;;;;;;4.60;3.78;;;;;;;17.44;77.68;99226.69;4115860;28;20202;-84
2022/10/04 09:53:36;;;;;;;4.90;4.38;;;;;;;17.38;77.95;99225.84;4116047;28;20285;-85
2022/10/04 09:56:25;;;;;;;9.23;4.93;;;;;;;17.67;77.21;99224.19;4135716;28;22156;-85
2022/10/04 09:58:42;;;;;;;5.20;3.80;;;;;;;17.98;75.68;99219.44;4118450;28;22322;-85
2022/10/04 10:01:12;;;;;;;4.15;3.60;;;;;;;17.61;78.56;99213.38;4133477;28;20282;-86
2022/10/04 10:03:52;;;;;;;8.07;3.90;;;;;;;17.26;80.74;99210.59;4127370;28;20590;-86
2022/10/04 10:06:24;;;;;;;4.35;3.70;;;;;;;17.42;78.25;99204.81;4136504;28;20210;-85
2022/10/04 10:08:38;;;;;;;6.53;4.50;;;;;;;17.44;78.91;99218.41;4133030;28;20202;-85
2022/10/04 10:13:51;;;;;;;5.53;3.80;;;;;;;18.02;77.91;99209.44;4148622;28;20268;-86
2022/10/04 10:16:11;;;;;;;6.65;3.53;;;;;;;18.26;74.26;99208.50;4134479;28;20199;-84
2022/10/04 10:19:10;;;;;;;5.47;3.08;;;;;;;17.46;75.91;99211.44;4137734;28;20201;-85
2022/10/04 10:21:14;;;;;;;4.88;3.33;;;;;;;16.94;77.57;99204.47;4099596;28;20207;-85
2022/10/04 10:23:34;;;;;;;6.75;2.97;;;;;;;16.82;79.13;99203.91;4126100;28;20220;-84
2022/10/04 10:26:14;;;;;;;4.80;3.40;;;;;;;17.84;78.35;99198.97;4141624;28;20216;-85
2022/10/04 10:28:33;;;;;;;4.25;3.38;;;;;;;18.42;75.22;99203.78;4141101;28;20766;-84
2022/10/04 10:30:38;;;;;;;4.07;2.92;;;;;;;18.39;75.80;99204.34;4132128;28;20575;-86
2022/10/04 10:33:07;;;;;;;4.65;3.28;;;;;;;18.09;76.61;99204.41;4150429;28;20193;-84
2022/10/04 10:35:51;;;;;;;4.57;3.30;;;;;;;18.55;76.36;99208.72;4120363;28;20697;-84
2022/10/04 10:38:34;;;;;;;4.45;4.03;;;;;;;18.75;75.17;99203.91;4127275;28;20241;-85
2022/10/04 10:40:59;;;;;;;4.20;3.28;;;;;;;18.92;75.97;99198.78;4132504;28;20202;-85
2022/10/04 10:43:07;;;;;;;3.97;2.83;;;;;;;19.52;74.32;99198.34;4137439;28;20213;-85